Terminal Aerodrome Forecast
Issued by NWS

Home | Current Version | Previous Version | Text Only | Print | Product List | Glossary On
Versions: 1 2 3 4 5 6 7 8 9 10 11 12 13 14 15 16 17 18
000
FTUS43 KIND 140900 AAB
TAFBMG
TAF AMD
KBMG 140927Z 1409/1506 25004KT 5SM -SHRA SCT015 BKN040 OVC080
      TEMPO 1410/1412 2SM TSRA BKN015 OVC040CB
     FM141200 26005KT P6SM SCT015 SCT040 BKN100
      TEMPO 1412/1413 4SM BR
     FM141800 28008KT P6SM VCTS BKN040CB
     FM150400 31006KT P6SM BKN035
      AMD LTD TO CLD VIS AND WIND TIL 141300=

USA.gov is the U.S. government's official web portal to all federal, state and local government web resources and services.